createdAt,value
2023-05-13T00:02:08.450Z,66.33
2023-05-13T00:04:52.254Z,66.05
2023-05-13T00:07:36.127Z,66.13
2023-05-13T00:10:20.803Z,66.64
2023-05-13T00:13:04.987Z,66.15
2023-05-13T00:15:50.358Z,66.69
2023-05-13T00:18:34.198Z,66.14
2023-05-13T00:21:18.315Z,65.76
2023-05-13T00:24:02.448Z,64.95
2023-05-13T00:26:46.360Z,64.10
2023-05-13T00:29:31.639Z,63.36
2023-05-13T00:32:17.245Z,62.71
2023-05-13T00:35:01.313Z,63.09
2023-05-13T00:37:46.236Z,63.18
2023-05-13T00:40:30.808Z,62.75
2023-05-13T00:43:14.792Z,63.29
2023-05-13T00:45:59.537Z,64.01
2023-05-13T00:48:45.458Z,63.31
2023-05-13T00:51:29.829Z,63.00
2023-05-13T00:54:13.920Z,62.53
2023-05-13T00:56:59.641Z,62.89
2023-05-13T00:59:43.886Z,63.01
2023-05-13T01:02:34.821Z,62.91
2023-05-13T01:05:30.173Z,62.42
2023-05-13T01:08:22.748Z,62.76
2023-05-13T01:11:14.918Z,62.78
2023-05-13T01:14:04.838Z,62.13
2023-05-13T01:16:53.307Z,61.86
2023-05-13T01:19:43.416Z,61.76
2023-05-13T01:22:28.904Z,61.70
2023-05-13T01:25:13.040Z,61.15
2023-05-13T01:27:57.497Z,61.50
2023-05-13T01:30:41.862Z,61.43
2023-05-13T01:33:27.696Z,61.54
2023-05-13T01:36:12.019Z,60.98
2023-05-13T01:38:59.494Z,60.95
2023-05-13T01:41:46.200Z,61.05
2023-05-13T01:44:30.561Z,60.13
2023-05-13T01:47:15.784Z,60.45
2023-05-13T01:50:00.052Z,59.93
2023-05-13T01:52:44.903Z,59.46
2023-05-13T01:55:30.607Z,59.79
2023-05-13T01:58:16.239Z,60.44
2023-05-13T02:01:00.280Z,60.24
2023-05-13T02:03:45.262Z,60.79
2023-05-13T02:06:29.884Z,60.45
2023-05-13T02:09:14.335Z,61.64
2023-05-13T02:11:59.820Z,61.62
2023-05-13T02:14:45.571Z,61.80
2023-05-13T02:17:29.743Z,62.39
2023-05-13T02:20:15.746Z,61.97
2023-05-13T02:22:59.860Z,61.77
2023-05-13T02:25:45.873Z,61.83
2023-05-13T02:28:31.468Z,61.11
2023-05-13T02:31:15.657Z,61.17
2023-05-13T02:34:01.349Z,61.14
2023-05-13T02:36:45.427Z,61.34
2023-05-13T02:39:29.401Z,61.28
2023-05-13T02:42:15.137Z,61.08
2023-05-13T02:45:00.811Z,60.22
2023-05-13T02:47:48.965Z,60.52
2023-05-13T02:50:33.558Z,60.56
2023-05-13T02:53:17.874Z,59.64
2023-05-13T02:56:08.822Z,59.17
2023-05-13T02:58:54.403Z,58.59
2023-05-13T03:01:39.884Z,57.34
2023-05-13T03:04:24.262Z,57.26
2023-05-13T03:07:08.249Z,56.37
2023-05-13T03:09:52.121Z,55.27
2023-05-13T03:12:36.296Z,54.33
2023-05-13T03:15:20.509Z,53.37
2023-05-13T03:18:06.477Z,52.85
2023-05-13T03:20:50.682Z,53.03
2023-05-13T03:23:35.519Z,53.00
2023-05-13T03:26:19.957Z,52.29
2023-05-13T03:29:03.872Z,52.23
2023-05-13T03:31:47.996Z,52.17
2023-05-13T03:34:33.572Z,52.99
2023-05-13T03:37:17.848Z,54.46
2023-05-13T03:40:02.118Z,55.46
2023-05-13T03:42:48.054Z,56.41
2023-05-13T03:45:32.030Z,56.05
2023-05-13T03:48:21.036Z,56.45
2023-05-13T03:51:06.549Z,57.57
2023-05-13T03:53:50.528Z,58.04
2023-05-13T03:56:35.202Z,57.86
2023-05-13T03:59:18.999Z,56.30
2023-05-13T04:02:03.095Z,55.31
2023-05-13T04:04:47.979Z,54.26
2023-05-13T04:07:33.261Z,53.30
2023-05-13T04:10:17.162Z,55.25
2023-05-13T04:13:01.106Z,54.69
2023-05-13T04:15:45.167Z,53.83
2023-05-13T04:18:30.385Z,53.91
2023-05-13T04:21:14.121Z,53.73
2023-05-13T04:23:59.324Z,53.08
2023-05-13T04:26:43.058Z,52.13
2023-05-13T04:29:26.954Z,51.82
2023-05-13T04:32:11.034Z,51.46
2023-05-13T04:34:55.864Z,51.16
2023-05-13T04:37:42.231Z,51.18
2023-05-13T04:40:31.567Z,50.98
2023-05-13T04:43:20.250Z,50.15
2023-05-13T04:46:08.571Z,50.44
2023-05-13T04:48:52.432Z,50.92
2023-05-13T04:51:36.920Z,50.69
2023-05-13T04:54:21.163Z,51.81
2023-05-13T04:57:07.431Z,52.40
2023-05-13T04:59:51.903Z,53.00
2023-05-13T05:02:36.522Z,53.13
2023-05-13T05:05:20.468Z,52.97
2023-05-13T05:08:04.251Z,53.17
2023-05-13T05:10:48.141Z,54.33
2023-05-13T05:13:34.363Z,53.94
2023-05-13T05:16:18.492Z,53.87
2023-05-13T05:19:02.949Z,52.94
2023-05-13T05:21:47.694Z,53.16
2023-05-13T05:24:32.009Z,52.44
2023-05-13T05:27:15.821Z,51.38
2023-05-13T05:30:01.068Z,49.69
2023-05-13T05:32:48.439Z,49.07
2023-05-13T05:35:33.416Z,48.80
2023-05-13T05:38:17.369Z,48.94
2023-05-13T05:41:02.448Z,48.80
2023-05-13T05:43:46.986Z,48.05
2023-05-13T05:46:32.723Z,47.43
2023-05-13T05:49:18.093Z,47.78
2023-05-13T05:52:02.006Z,47.96
2023-05-13T05:54:47.389Z,47.69
2023-05-13T05:57:31.451Z,47.01
2023-05-13T06:00:16.135Z,44.90
2023-05-13T06:03:01.351Z,43.67
2023-05-13T06:05:45.542Z,42.84
2023-05-13T06:08:30.459Z,35.62
2023-05-13T06:11:14.918Z,35.89
2023-05-13T06:13:59.707Z,35.53
2023-05-13T06:16:44.621Z,35.71
2023-05-13T06:19:30.148Z,35.42
2023-05-13T06:22:14.617Z,36.63
2023-05-13T06:25:00.096Z,36.27
2023-05-13T06:27:44.487Z,35.23
2023-05-13T06:30:28.607Z,35.96
2023-05-13T06:33:12.978Z,35.15
2023-05-13T06:35:58.586Z,36.60
2023-05-13T06:38:44.013Z,35.13
2023-05-13T06:41:28.102Z,34.46
2023-05-13T06:44:17.332Z,35.56
2023-05-13T06:47:05.174Z,35.30
2023-05-13T06:49:49.242Z,34.72
2023-05-13T06:52:34.746Z,34.64
2023-05-13T06:55:19.205Z,34.81
2023-05-13T06:58:03.252Z,33.81
2023-05-13T07:00:48.374Z,34.02
2023-05-13T07:03:32.463Z,33.51
2023-05-13T07:06:16.663Z,33.01
2023-05-13T07:09:05.353Z,32.53
2023-05-13T07:11:52.401Z,32.84
2023-05-13T07:14:36.444Z,30.68
2023-05-13T07:17:20.494Z,32.07
2023-05-13T07:20:04.822Z,30.86
2023-05-13T07:22:48.896Z,30.26
2023-05-13T07:25:34.657Z,29.93
2023-05-13T07:28:18.615Z,29.91
2023-05-13T07:31:02.729Z,30.99
2023-05-13T07:33:46.841Z,30.15
2023-05-13T07:36:31.076Z,30.18
2023-05-13T07:39:15.125Z,30.17
2023-05-13T07:42:00.953Z,30.39
2023-05-13T07:44:44.931Z,30.09
2023-05-13T07:47:29.378Z,30.16
2023-05-13T07:50:13.819Z,29.93
2023-05-13T07:52:58.071Z,30.56
2023-05-13T07:55:42.076Z,29.92
2023-05-13T07:58:27.575Z,31.95
2023-05-13T08:01:11.748Z,29.80
2023-05-13T08:03:56.099Z,32.00
2023-05-13T08:06:40.347Z,30.02
2023-05-13T08:09:24.679Z,28.69
2023-05-13T08:12:09.355Z,28.46
2023-05-13T08:14:54.916Z,28.15
2023-05-13T08:17:39.262Z,28.18
2023-05-13T08:20:30.021Z,28.81
2023-05-13T08:23:14.430Z,28.84
2023-05-13T08:25:58.729Z,27.99
2023-05-13T08:28:42.880Z,28.41
2023-05-13T08:31:28.542Z,28.83
2023-05-13T08:34:12.548Z,28.48
2023-05-13T08:36:56.678Z,28.38
2023-05-13T08:39:40.642Z,28.82
2023-05-13T08:42:25.997Z,30.49
2023-05-13T08:45:12.465Z,29.13
2023-05-13T08:47:59.872Z,27.73
2023-05-13T08:50:44.464Z,27.57
2023-05-13T08:53:28.606Z,26.59
2023-05-13T08:56:13.362Z,26.70
2023-05-13T08:58:57.410Z,27.05
2023-05-13T09:01:41.379Z,27.37
2023-05-13T09:04:27.176Z,27.45
2023-05-13T09:07:12.059Z,27.54
2023-05-13T09:09:55.885Z,25.80
2023-05-13T09:12:47.311Z,26.80
2023-05-13T09:15:31.569Z,29.06
2023-05-13T09:18:18.659Z,29.21
2023-05-13T09:21:25.989Z,26.38
2023-05-13T09:24:18.227Z,26.88
2023-05-13T09:27:02.104Z,27.48
2023-05-13T09:29:46.113Z,26.99
2023-05-13T09:32:30.022Z,26.31
2023-05-13T09:35:18.836Z,26.57
2023-05-13T09:38:13.807Z,25.84
2023-05-13T09:40:59.372Z,24.78
2023-05-13T09:43:43.619Z,25.14
2023-05-13T09:46:27.480Z,24.21
2023-05-13T09:49:11.498Z,24.90
2023-05-13T09:51:55.289Z,26.15
2023-05-13T09:54:40.780Z,24.21
2023-05-13T09:57:24.778Z,25.12
2023-05-13T10:00:24.853Z,26.51
2023-05-13T10:03:13.443Z,26.68
2023-05-13T10:06:02.299Z,27.44
2023-05-13T10:08:48.643Z,25.48
2023-05-13T10:11:36.585Z,24.92
2023-05-13T10:14:20.784Z,25.37
2023-05-13T10:17:05.483Z,24.92
2023-05-13T10:19:51.317Z,23.88
2023-05-13T10:22:35.878Z,23.53
2023-05-13T10:25:20.631Z,24.17
2023-05-13T10:28:06.807Z,24.26
2023-05-13T10:30:51.196Z,24.59
2023-05-13T10:33:35.192Z,24.21
2023-05-13T10:36:43.738Z,24.85
2023-05-13T10:40:06.705Z,24.97
2023-05-13T10:42:57.729Z,26.54
2023-05-13T10:45:46.226Z,27.72
2023-05-13T10:48:40.104Z,26.08
2023-05-13T10:51:25.386Z,25.96
2023-05-13T10:54:20.406Z,28.87
2023-05-13T10:57:04.338Z,26.30
2023-05-13T11:00:15.902Z,26.78
2023-05-13T11:03:26.732Z,27.31
2023-05-13T11:06:19.725Z,28.56
2023-05-13T11:09:06.859Z,27.90
2023-05-13T11:11:54.654Z,28.08
2023-05-13T11:14:38.461Z,27.57
2023-05-13T11:17:22.393Z,27.27
2023-05-13T11:20:09.549Z,26.82
2023-05-13T11:22:53.424Z,27.84
2023-05-13T11:25:37.651Z,28.14
2023-05-13T11:28:54.926Z,26.61
2023-05-13T11:31:48.577Z,26.70
2023-05-13T11:34:33.528Z,26.70
2023-05-13T11:37:19.422Z,28.63
2023-05-13T11:40:04.564Z,27.33
2023-05-13T11:42:49.212Z,27.22
2023-05-13T11:45:33.572Z,26.96
2023-05-13T11:48:22.289Z,27.36
2023-05-13T11:51:07.348Z,26.33
2023-05-13T11:53:53.234Z,27.51
2023-05-13T11:56:37.088Z,26.83
2023-05-13T11:59:20.878Z,25.84
2023-05-13T12:02:05.115Z,26.29
2023-05-13T12:04:49.130Z,27.52
2023-05-13T12:07:33.622Z,26.35
2023-05-13T12:10:19.226Z,26.94
2023-05-13T12:13:04.479Z,26.91
2023-05-13T12:15:50.341Z,26.74
2023-05-13T12:18:34.987Z,25.29
2023-05-13T12:21:18.860Z,26.15
2023-05-13T12:24:02.698Z,26.60
2023-05-13T12:26:48.270Z,27.53
2023-05-13T12:29:41.161Z,28.04
2023-05-13T12:32:26.489Z,27.82
2023-05-13T12:35:14.387Z,27.11
2023-05-13T12:38:03.218Z,27.72
2023-05-13T12:40:47.816Z,26.25
2023-05-13T12:43:34.276Z,25.72
2023-05-13T12:46:18.511Z,26.34
2023-05-13T12:49:04.586Z,25.92
2023-05-13T12:51:48.467Z,25.99
2023-05-13T12:54:32.412Z,27.22
2023-05-13T12:57:17.401Z,26.03
2023-05-13T13:00:02.760Z,25.35
2023-05-13T13:02:49.373Z,26.46
2023-05-13T13:05:33.346Z,25.84
2023-05-13T13:08:17.555Z,24.96
2023-05-13T13:11:01.687Z,25.24
2023-05-13T13:13:45.816Z,25.18
2023-05-13T13:16:32.018Z,25.90
2023-05-13T13:19:15.979Z,25.31
2023-05-13T13:22:00.043Z,24.20
2023-05-13T13:24:43.862Z,25.26
2023-05-13T13:27:27.768Z,26.47
2023-05-13T13:30:13.300Z,26.91
2023-05-13T13:32:58.660Z,26.80
2023-05-13T13:35:43.680Z,26.57
2023-05-13T13:38:27.575Z,27.45
2023-05-13T13:41:11.471Z,27.02
2023-05-13T13:43:55.329Z,26.16
2023-05-13T13:46:39.301Z,25.76
2023-05-13T13:49:25.088Z,25.89
2023-05-13T13:52:10.660Z,25.40
2023-05-13T13:54:54.408Z,26.92
2023-05-13T13:57:38.259Z,26.08
2023-05-13T14:00:22.526Z,27.28
2023-05-13T14:03:06.662Z,26.41
2023-05-13T14:05:52.098Z,27.10
2023-05-13T14:08:35.892Z,27.29
2023-05-13T14:11:19.784Z,28.12
2023-05-13T14:14:03.721Z,26.88
2023-05-13T14:16:48.167Z,25.91
2023-05-13T14:19:32.279Z,26.06
2023-05-13T14:22:17.850Z,25.89
2023-05-13T14:25:01.926Z,26.73
2023-05-13T14:27:48.035Z,26.17
2023-05-13T14:30:32.010Z,26.53
2023-05-13T14:33:15.989Z,26.69
2023-05-13T14:35:59.964Z,27.44
2023-05-13T14:38:45.550Z,27.03
2023-05-13T14:41:30.053Z,27.68
2023-05-13T14:44:14.448Z,28.53
2023-05-13T14:46:58.550Z,28.37
2023-05-13T14:49:42.593Z,28.37
2023-05-13T14:52:27.093Z,29.85
2023-05-13T14:55:13.246Z,28.51
2023-05-13T14:57:57.358Z,29.02
2023-05-13T15:00:41.821Z,28.66
2023-05-13T15:03:25.716Z,30.47
2023-05-13T15:06:09.925Z,30.01
2023-05-13T15:08:53.919Z,29.89
2023-05-13T15:11:42.251Z,29.51
2023-05-13T15:14:26.454Z,29.74
2023-05-13T15:17:12.123Z,30.49
2023-05-13T15:19:56.084Z,30.82
2023-05-13T15:22:39.835Z,30.97
2023-05-13T15:25:23.629Z,32.07
2023-05-13T15:28:09.056Z,34.09
2023-05-13T15:30:53.004Z,33.13
2023-05-13T15:33:36.897Z,32.89
2023-05-13T15:36:20.707Z,32.66
2023-05-13T15:39:04.753Z,32.33
2023-05-13T15:41:49.624Z,33.41
2023-05-13T15:44:35.166Z,33.98
2023-05-13T15:47:19.308Z,34.32
2023-05-13T15:50:03.804Z,34.49
2023-05-13T15:52:49.017Z,35.15
2023-05-13T15:55:33.115Z,36.09
2023-05-13T15:58:16.913Z,36.85
2023-05-13T16:01:02.263Z,38.68
2023-05-13T16:03:46.108Z,38.88
2023-05-13T16:06:30.131Z,41.21
2023-05-13T16:09:14.167Z,42.37
2023-05-13T16:11:57.964Z,43.18
2023-05-13T16:14:41.902Z,43.33
2023-05-13T16:17:27.136Z,43.82
2023-05-13T16:20:11.823Z,44.28
2023-05-13T16:22:55.917Z,45.75
2023-05-13T16:25:40.302Z,47.39
2023-05-13T16:28:24.150Z,49.47
2023-05-13T16:31:07.905Z,50.93
2023-05-13T16:33:53.400Z,52.96
2023-05-13T16:36:37.341Z,54.76
2023-05-13T16:39:21.152Z,55.60
2023-05-13T16:42:05.072Z,56.20
2023-05-13T16:44:49.222Z,55.99
2023-05-13T16:47:33.116Z,58.20
2023-05-13T16:50:18.334Z,59.28
2023-05-13T16:53:02.355Z,59.45
2023-05-13T16:55:46.276Z,59.13
2023-05-13T16:58:30.131Z,58.36
2023-05-13T17:01:13.982Z,57.00
2023-05-13T17:03:57.964Z,56.87
2023-05-13T17:06:43.159Z,55.61
2023-05-13T17:09:27.142Z,55.73
2023-05-13T17:12:11.121Z,56.13
2023-05-13T17:14:54.995Z,56.80
2023-05-13T17:17:38.879Z,57.38
2023-05-13T17:20:23.170Z,56.83
2023-05-13T17:23:08.542Z,55.99
2023-05-13T17:25:52.404Z,53.46
2023-05-13T17:28:38.362Z,53.44
2023-05-13T17:31:22.226Z,53.31
2023-05-13T17:34:06.465Z,53.77
2023-05-13T17:36:50.451Z,53.76
2023-05-13T17:39:35.817Z,53.50
2023-05-13T17:42:19.767Z,54.89
2023-05-13T17:45:04.318Z,55.59
2023-05-13T17:47:50.397Z,55.81
2023-05-13T17:50:34.330Z,56.02
2023-05-13T17:53:18.323Z,56.53
2023-05-13T17:56:03.632Z,57.12
2023-05-13T17:58:47.526Z,56.98
2023-05-13T18:01:31.371Z,56.93
2023-05-13T18:04:15.233Z,57.20
2023-05-13T18:06:59.106Z,56.45
2023-05-13T18:09:42.944Z,57.12
2023-05-13T18:12:28.118Z,57.56
2023-05-13T18:15:12.173Z,58.20
2023-05-13T18:17:56.025Z,58.20
2023-05-13T18:20:42.169Z,58.90
2023-05-13T18:23:26.080Z,59.03
2023-05-13T18:26:09.915Z,57.54
2023-05-13T18:28:55.102Z,57.84
2023-05-13T18:31:39.160Z,57.91
2023-05-13T18:34:23.249Z,58.27
2023-05-13T18:37:07.632Z,57.62
2023-05-13T18:39:51.500Z,57.36
2023-05-13T18:42:35.336Z,57.39
2023-05-13T18:45:21.134Z,58.31
2023-05-13T18:48:05.322Z,58.62
2023-05-13T18:50:49.144Z,57.22
2023-05-13T18:53:32.961Z,58.40
2023-05-13T18:56:16.805Z,58.62
2023-05-13T18:59:00.881Z,58.88
2023-05-13T19:01:46.234Z,58.49
2023-05-13T19:04:30.243Z,58.51
2023-05-13T19:07:14.363Z,58.28
2023-05-13T19:09:58.369Z,58.84
2023-05-13T19:12:42.206Z,58.18
2023-05-13T19:15:26.517Z,58.20
2023-05-13T19:18:11.689Z,58.14
2023-05-13T19:20:55.716Z,57.73
2023-05-13T19:23:39.674Z,57.72
2023-05-13T19:26:23.485Z,57.15
2023-05-13T19:29:07.807Z,57.46
2023-05-13T19:31:51.671Z,57.92
2023-05-13T19:34:36.806Z,57.88
2023-05-13T19:37:20.750Z,57.07
2023-05-13T19:40:05.357Z,57.26
2023-05-13T19:42:49.475Z,56.81
2023-05-13T19:45:33.393Z,56.58
2023-05-13T19:48:17.245Z,56.12
2023-05-13T19:51:02.468Z,58.08
2023-05-13T19:53:46.334Z,57.26
2023-05-13T19:56:30.175Z,57.18
2023-05-13T19:59:13.986Z,58.20
2023-05-13T20:01:57.809Z,59.31
2023-05-13T20:04:41.628Z,59.98
2023-05-13T20:07:26.875Z,59.57
2023-05-13T20:10:12.003Z,60.66
2023-05-13T20:12:55.888Z,60.54
2023-05-13T20:15:39.658Z,59.75
2023-05-13T20:18:23.569Z,59.62
2023-05-13T20:21:07.433Z,58.99
2023-05-13T20:23:52.712Z,59.41
2023-05-13T20:26:36.793Z,59.05
2023-05-13T20:29:20.717Z,58.72
2023-05-13T20:32:05.315Z,58.93
2023-05-13T20:34:49.299Z,59.44
2023-05-13T20:37:33.104Z,58.33
2023-05-13T20:40:18.298Z,58.71
2023-05-13T20:43:05.063Z,59.32
2023-05-13T20:45:50.158Z,59.61
2023-05-13T20:48:35.122Z,59.02
2023-05-13T20:51:19.060Z,58.94
2023-05-13T20:54:02.865Z,58.25
2023-05-13T20:56:48.140Z,58.02
2023-05-13T20:59:32.069Z,57.76
2023-05-13T21:02:15.863Z,58.21
2023-05-13T21:04:59.712Z,57.49
2023-05-13T21:07:43.501Z,58.00
2023-05-13T21:10:27.517Z,59.68
2023-05-13T21:13:12.870Z,60.14
2023-05-13T21:15:57.509Z,60.07
2023-05-13T21:18:41.585Z,59.80
2023-05-13T21:21:25.546Z,59.66
2023-05-13T21:24:09.463Z,60.03
2023-05-13T21:26:55.497Z,60.01
2023-05-13T21:29:40.980Z,58.87
2023-05-13T21:32:24.952Z,59.41
2023-05-13T21:35:09.548Z,58.98
2023-05-13T21:37:58.581Z,58.57
2023-05-13T21:40:48.679Z,58.28
2023-05-13T21:43:32.558Z,58.00
2023-05-13T21:46:17.848Z,57.75
2023-05-13T21:49:01.806Z,57.60
2023-05-13T21:51:45.638Z,58.89
2023-05-13T21:54:29.405Z,59.08
2023-05-13T21:57:13.220Z,59.16
2023-05-13T21:59:57.039Z,59.41
2023-05-13T22:02:42.519Z,60.07
2023-05-13T22:05:26.391Z,60.10
2023-05-13T22:08:10.229Z,60.05
2023-05-13T22:10:54.188Z,59.48
2023-05-13T22:13:38.181Z,59.43
2023-05-13T22:16:22.128Z,59.46
2023-05-13T22:19:07.421Z,58.55
2023-05-13T22:21:51.387Z,58.97
2023-05-13T22:24:35.194Z,59.46
2023-05-13T22:27:19.054Z,59.24
2023-05-13T22:30:02.805Z,59.03
2023-05-13T22:32:50.982Z,58.92
2023-05-13T22:35:37.228Z,59.18
2023-05-13T22:38:21.083Z,59.62
2023-05-13T22:41:04.863Z,60.12
2023-05-13T22:43:48.744Z,59.79
2023-05-13T22:46:32.665Z,59.95
2023-05-13T22:49:16.560Z,59.99
2023-05-13T22:52:01.802Z,59.58
2023-05-13T22:54:45.621Z,59.71
2023-05-13T22:57:29.419Z,60.30
2023-05-13T23:00:14.577Z,59.90
2023-05-13T23:02:58.684Z,59.50
2023-05-13T23:05:42.805Z,59.77
2023-05-13T23:08:28.611Z,60.10
2023-05-13T23:11:12.426Z,61.02
2023-05-13T23:13:56.237Z,61.70
2023-05-13T23:16:40.051Z,62.34
2023-05-13T23:19:25.412Z,63.73
2023-05-13T23:22:09.263Z,64.66
2023-05-13T23:24:54.434Z,65.25
2023-05-13T23:27:38.211Z,66.36
2023-05-13T23:30:22.710Z,67.19
2023-05-13T23:33:06.728Z,68.06
2023-05-13T23:35:54.163Z,68.72
2023-05-13T23:38:37.916Z,69.46
2023-05-13T23:41:23.146Z,68.99
2023-05-13T23:44:06.979Z,68.44
2023-05-13T23:46:50.934Z,68.16
2023-05-13T23:49:34.792Z,66.74
2023-05-13T23:52:18.705Z,66.29
2023-05-13T23:55:03.687Z,65.78
2023-05-13T23:57:51.561Z,65.41
